KHTS/HTS METAR and TAF weather

Enter ICAO airport designator
Station Type Date Time Source
KHTS METAR 2024/06/16 07:51 UTC NOAA

KHTS 160751Z AUTO 00000KT 10SM CLR 16/12 A3006 RMK AO2 SLP170 T01560122


Station Type Date Time Source
KHTS Decoded METAR 2024/06/16 07:51 UTC NOAA

TRI-STATE AIRPORT, WV, United States (KHTS) 38-22N 082-33W 254M
Jun 16, 2024 - 03:51 AM EDT / 2024.06.16 0751 UTC
Wind: Calm:0
Visibility: 10 mile(s):0
Sky conditions: clear
Temperature: 60.1 F (15.6 C)
Dew Point: 54.0 F (12.2 C)
Relative Humidity: 80%
Pressure (altimeter): 30.06 in. Hg (1017 hPa)
ob: KHTS 160751Z AUTO 00000KT 10SM CLR 16/12 A3006 RMK AO2 SLP170 T01560122
cycle: 8

Station Type Date Time Source
KHTS TAF 2024/06/16 06:22 UTC NOAA